createdAt,value
2018-06-16T00:01:13.684Z,17.70
2018-06-16T00:03:43.958Z,17.70
2018-06-16T00:06:14.172Z,17.80
2018-06-16T00:08:44.559Z,17.80
2018-06-16T00:11:15.091Z,17.70
2018-06-16T00:13:45.812Z,17.70
2018-06-16T00:16:16.083Z,17.60
2018-06-16T00:18:46.299Z,17.60
2018-06-16T00:21:16.520Z,17.50
2018-06-16T00:23:46.779Z,17.40
2018-06-16T00:26:17.303Z,17.30
2018-06-16T00:28:47.536Z,17.30
2018-06-16T00:31:17.783Z,17.20
2018-06-16T00:33:48.135Z,17.10
2018-06-16T00:36:18.351Z,17.10
2018-06-16T00:38:48.995Z,17.00
2018-06-16T00:41:19.342Z,17.10
2018-06-16T00:43:49.523Z,17.00
2018-06-16T00:46:19.818Z,16.90
2018-06-16T00:48:50.035Z,16.80
2018-06-16T00:51:20.524Z,16.80
2018-06-16T00:53:51.382Z,16.80
2018-06-16T00:56:21.615Z,16.70
2018-06-16T00:58:51.839Z,16.60
2018-06-16T01:01:22.157Z,16.60
2018-06-16T01:03:52.692Z,16.50
2018-06-16T01:06:22.935Z,16.50
2018-06-16T01:08:53.764Z,16.50
2018-06-16T01:13:54.723Z,16.40
2018-06-16T01:16:24.972Z,16.40
2018-06-16T01:18:55.816Z,16.30
2018-06-16T01:21:26.041Z,16.20
2018-06-16T01:23:56.835Z,16.20
2018-06-16T01:26:27.075Z,16.20
2018-06-16T01:28:57.736Z,16.20
2018-06-16T01:31:28.888Z,16.10
2018-06-16T01:33:59.138Z,16.10
2018-06-16T01:36:29.618Z,16.10
2018-06-16T01:39:00.540Z,16.00
2018-06-16T01:41:30.849Z,16.00
2018-06-16T01:44:01.119Z,15.90
2018-06-16T01:46:31.986Z,16.00
2018-06-16T01:49:02.589Z,16.00
2018-06-16T01:51:32.835Z,16.00
2018-06-16T01:54:03.424Z,16.00
2018-06-16T01:59:03.592Z,16.10
2018-06-16T02:01:34.412Z,16.10
2018-06-16T02:04:04.696Z,16.20
2018-06-16T02:06:35.028Z,16.20
2018-06-16T02:09:08.067Z,16.20
2018-06-16T02:11:38.327Z,16.20
2018-06-16T02:14:09.715Z,16.20
2018-06-16T02:16:40.803Z,16.30
2018-06-16T02:19:11.716Z,16.30
2018-06-16T02:21:42.023Z,16.30
2018-06-16T02:24:12.831Z,16.20
2018-06-16T02:34:13.554Z,16.30
2018-06-16T02:36:43.923Z,16.30
2018-06-16T02:39:14.599Z,16.30
2018-06-16T02:41:44.868Z,16.30
2018-06-16T02:44:15.143Z,16.30
2018-06-16T02:46:45.916Z,16.30
2018-06-16T02:49:16.127Z,16.20
2018-06-16T02:51:46.335Z,16.20
2018-06-16T02:54:17.658Z,16.20
2018-06-16T02:56:47.894Z,16.10
2018-06-16T02:59:18.487Z,16.20
2018-06-16T03:01:49.040Z,16.20
2018-06-16T03:04:20.243Z,16.20
2018-06-16T03:06:50.574Z,16.20
2018-06-16T03:09:21.148Z,16.20
2018-06-16T03:11:51.366Z,16.20
2018-06-16T03:14:21.718Z,16.30
2018-06-16T03:16:52.104Z,16.30
2018-06-16T03:19:22.554Z,16.40
2018-06-16T03:21:52.777Z,16.40
2018-06-16T03:24:23.015Z,16.40
2018-06-16T03:26:53.663Z,16.40
2018-06-16T03:29:24.260Z,16.50
2018-06-16T03:31:54.568Z,16.50
2018-06-16T03:34:24.775Z,16.60
2018-06-16T03:36:55.296Z,16.60
2018-06-16T03:39:26.630Z,16.60
2018-06-16T03:41:57.537Z,16.60
2018-06-16T03:44:27.883Z,16.70
2018-06-16T03:46:58.084Z,16.70
2018-06-16T03:49:28.590Z,16.80
2018-06-16T03:51:59.312Z,16.80
2018-06-16T03:54:30.401Z,16.80
2018-06-16T03:57:00.675Z,16.90
2018-06-16T03:59:30.943Z,16.90
2018-06-16T04:02:01.405Z,17.00
2018-06-16T04:04:31.843Z,17.10
2018-06-16T04:07:02.288Z,17.20
2018-06-16T04:09:33.115Z,17.40
2018-06-16T04:12:03.359Z,17.50
2018-06-16T04:14:33.916Z,17.60
2018-06-16T04:17:10.156Z,17.70
2018-06-16T04:19:41.288Z,17.70
2018-06-16T04:22:11.584Z,17.80
2018-06-16T04:24:42.343Z,17.90
2018-06-16T04:27:12.575Z,18.00
2018-06-16T04:29:42.805Z,18.10
2018-06-16T04:32:13.046Z,18.20
2018-06-16T04:34:43.391Z,18.30
2018-06-16T04:37:14.051Z,18.40
2018-06-16T04:39:44.460Z,18.50
2018-06-16T04:42:14.931Z,18.50
2018-06-16T04:44:45.832Z,18.50
2018-06-16T04:47:16.043Z,18.60
2018-06-16T04:49:46.431Z,18.60
2018-06-16T04:52:17.051Z,18.60
2018-06-16T04:54:47.623Z,18.70
2018-06-16T04:57:18.332Z,18.70
2018-06-16T04:59:49.192Z,18.60
2018-06-16T05:02:19.423Z,18.70
2018-06-16T05:04:50.021Z,18.70
2018-06-16T05:07:20.284Z,18.70
2018-06-16T05:09:50.839Z,18.80
2018-06-16T05:12:21.112Z,18.80
2018-06-16T05:14:51.508Z,18.90
2018-06-16T05:17:22.216Z,19.10
2018-06-16T05:19:52.479Z,19.10
2018-06-16T05:25:03.035Z,19.20
2018-06-16T05:27:33.492Z,19.30
2018-06-16T05:30:04.198Z,19.50
2018-06-16T05:32:34.591Z,19.60
2018-06-16T05:35:06.073Z,19.80
2018-06-16T05:37:36.339Z,19.90
2018-06-16T05:40:06.759Z,20.10
2018-06-16T05:42:37.415Z,20.00
2018-06-16T05:45:07.703Z,20.20
2018-06-16T05:47:38.060Z,20.30
2018-06-16T05:50:08.487Z,20.40
2018-06-16T05:52:39.211Z,20.40
2018-06-16T05:55:09.818Z,20.70
2018-06-16T05:57:40.041Z,20.70
2018-06-16T06:00:10.629Z,21.10
2018-06-16T06:02:42.801Z,21.40
2018-06-16T06:05:14.060Z,21.60
2018-06-16T06:07:44.851Z,21.90
2018-06-16T06:10:15.277Z,22.00
2018-06-16T06:12:46.055Z,22.10
2018-06-16T06:15:17.387Z,22.10
2018-06-16T06:20:18.843Z,22.10
2018-06-16T06:22:49.232Z,22.30
2018-06-16T06:25:19.535Z,22.50
2018-06-16T06:27:50.207Z,22.50
2018-06-16T06:31:16.871Z,22.50
2018-06-16T06:33:47.101Z,22.60
2018-06-16T06:36:17.924Z,22.80
2018-06-16T06:38:48.298Z,22.90
2018-06-16T06:41:18.943Z,23.00
2018-06-16T06:43:49.241Z,23.20
2018-06-16T06:46:19.837Z,23.40
2018-06-16T06:48:51.018Z,23.40
2018-06-16T06:51:21.712Z,23.40
2018-06-16T06:53:51.975Z,23.70
2018-06-16T06:56:22.946Z,23.70
2018-06-16T06:58:53.503Z,23.90
2018-06-16T07:01:24.486Z,24.00
2018-06-16T07:03:56.064Z,24.00
2018-06-16T07:06:26.472Z,23.80
2018-06-16T07:08:56.707Z,23.80
2018-06-16T07:11:26.931Z,24.00
2018-06-16T07:13:57.517Z,24.00
2018-06-16T07:16:28.324Z,24.00
2018-06-16T07:19:00.781Z,23.90
2018-06-16T07:21:36.233Z,24.00
2018-06-16T07:24:11.477Z,23.90
2018-06-16T07:26:42.849Z,24.10
2018-06-16T07:29:13.409Z,24.10
2018-06-16T07:31:44.518Z,24.00
2018-06-16T07:34:15.746Z,24.20
2018-06-16T07:36:46.650Z,24.30
2018-06-16T07:39:17.298Z,24.40
2018-06-16T07:41:47.956Z,24.50
2018-06-16T07:44:18.986Z,24.60
2018-06-16T07:46:49.540Z,24.80
2018-06-16T07:49:19.819Z,24.80
2018-06-16T07:51:50.404Z,25.10
2018-06-16T07:54:20.683Z,25.00
2018-06-16T07:56:51.023Z,25.30
2018-06-16T07:59:21.776Z,25.50
2018-06-16T08:01:52.023Z,25.70
2018-06-16T08:04:22.369Z,25.90
2018-06-16T08:06:53.150Z,25.80
2018-06-16T08:09:23.379Z,26.10
2018-06-16T08:11:53.635Z,26.20
2018-06-16T08:14:23.843Z,26.20
2018-06-16T08:16:54.135Z,26.30
2018-06-16T08:19:24.352Z,26.50
2018-06-16T08:21:55.029Z,26.80
2018-06-16T08:24:25.271Z,26.70
2018-06-16T08:26:56.095Z,26.60
2018-06-16T08:29:26.723Z,26.60
2018-06-16T08:31:57.450Z,26.90
2018-06-16T08:34:27.747Z,27.30
2018-06-16T08:36:58.715Z,27.30
2018-06-16T08:39:29.122Z,27.80
2018-06-16T08:41:59.372Z,28.10
2018-06-16T08:44:30.668Z,28.00
2018-06-16T08:47:00.931Z,27.10
2018-06-16T08:49:31.163Z,26.90
2018-06-16T08:52:01.865Z,27.00
2018-06-16T08:54:32.174Z,26.70
2018-06-16T08:57:02.579Z,26.90
2018-06-16T08:59:34.396Z,27.40
2018-06-16T09:02:07.259Z,27.80
2018-06-16T09:04:37.502Z,27.80
2018-06-16T09:07:08.092Z,27.90
2018-06-16T09:09:38.365Z,28.00
2018-06-16T09:12:08.941Z,28.60
2018-06-16T09:14:39.169Z,28.70
2018-06-16T09:17:09.912Z,28.80
2018-06-16T09:19:40.263Z,28.70
2018-06-16T09:22:10.739Z,28.50
2018-06-16T09:24:41.456Z,28.40
2018-06-16T09:27:12.030Z,28.70
2018-06-16T09:29:42.482Z,28.90
2018-06-16T09:32:13.167Z,28.90
2018-06-16T09:34:43.551Z,28.80
2018-06-16T09:37:13.787Z,28.80
2018-06-16T09:39:44.064Z,28.80
2018-06-16T09:42:14.600Z,28.60
2018-06-16T09:44:45.120Z,28.50
2018-06-16T09:47:15.938Z,28.80
2018-06-16T09:49:46.207Z,29.00
2018-06-16T09:52:16.965Z,28.80
2018-06-16T09:54:47.243Z,28.90
2018-06-16T09:57:17.784Z,29.20
2018-06-16T09:59:48.495Z,28.90
2018-06-16T10:02:18.977Z,29.20
2018-06-16T10:04:49.207Z,28.60
2018-06-16T10:07:19.471Z,28.20
2018-06-16T10:09:49.796Z,28.10
2018-06-16T10:12:20.059Z,28.70
2018-06-16T10:14:50.518Z,28.90
2018-06-16T10:17:21.518Z,28.30
2018-06-16T10:19:51.945Z,28.50
2018-06-16T10:22:22.522Z,28.20
2018-06-16T10:24:52.860Z,28.00
2018-06-16T10:27:23.243Z,27.40
2018-06-16T10:29:54.101Z,27.80
2018-06-16T10:32:24.336Z,27.30
2018-06-16T10:34:54.743Z,27.70
2018-06-16T10:37:25.339Z,28.60
2018-06-16T10:39:55.631Z,28.80
2018-06-16T10:42:26.966Z,29.20
2018-06-16T10:44:57.631Z,29.90
2018-06-16T10:47:38.537Z,29.10
2018-06-16T10:50:09.183Z,28.10
2018-06-16T10:52:39.770Z,27.80
2018-06-16T10:55:10.012Z,28.10
2018-06-16T10:57:40.666Z,28.20
2018-06-16T11:00:16.223Z,27.60
2018-06-16T11:02:49.705Z,28.20
2018-06-16T11:05:20.230Z,27.70
2018-06-16T11:07:50.547Z,27.20
2018-06-16T11:10:21.167Z,26.80
2018-06-16T11:12:51.653Z,27.10
2018-06-16T11:15:22.049Z,27.10
2018-06-16T11:17:52.907Z,27.60
2018-06-16T11:20:23.179Z,27.70
2018-06-16T11:22:53.591Z,27.50
2018-06-16T11:25:24.471Z,28.50
2018-06-16T11:27:55.096Z,29.00
2018-06-16T11:30:25.322Z,29.10
2018-06-16T11:32:56.248Z,29.70
2018-06-16T11:35:26.480Z,30.00
2018-06-16T11:37:56.745Z,29.20
2018-06-16T11:40:27.035Z,27.90
2018-06-16T11:42:57.345Z,27.50
2018-06-16T11:45:28.155Z,27.20
2018-06-16T11:47:58.411Z,27.00
2018-06-16T11:50:28.706Z,27.00
2018-06-16T11:52:59.466Z,26.20
2018-06-16T11:55:29.856Z,25.90
2018-06-16T11:58:00.132Z,26.00
2018-06-16T12:00:32.141Z,26.70
2018-06-16T12:03:03.369Z,26.30
2018-06-16T12:05:33.807Z,26.10
2018-06-16T12:08:05.269Z,26.00
2018-06-16T12:10:36.167Z,26.20
2018-06-16T12:13:06.702Z,25.80
2018-06-16T12:15:37.970Z,25.70
2018-06-16T12:18:08.355Z,25.40
2018-06-16T12:20:38.653Z,25.50
2018-06-16T12:23:09.520Z,25.70
2018-06-16T12:25:39.731Z,26.20
2018-06-16T12:28:10.023Z,26.60
2018-06-16T12:30:40.239Z,26.60
2018-06-16T12:35:40.466Z,28.30
2018-06-16T12:38:11.067Z,29.50
2018-06-16T12:40:41.313Z,30.30
2018-06-16T12:43:11.856Z,30.90
2018-06-16T12:45:42.123Z,31.90
2018-06-16T12:48:12.513Z,32.30
2018-06-16T12:50:42.770Z,32.70
2018-06-16T12:53:13.023Z,33.20
2018-06-16T12:55:43.633Z,33.80
2018-06-16T12:58:13.851Z,34.10
2018-06-16T13:00:44.645Z,34.50
2018-06-16T13:03:14.859Z,34.50
2018-06-16T13:05:45.526Z,34.80
2018-06-16T13:08:15.916Z,34.20
2018-06-16T13:10:46.129Z,34.00
2018-06-16T13:13:16.716Z,32.60
2018-06-16T13:15:50.299Z,32.20
2018-06-16T13:18:26.789Z,31.40
2018-06-16T13:20:57.210Z,30.90
2018-06-16T13:23:27.791Z,31.60
2018-06-16T13:25:58.502Z,31.00
2018-06-16T13:28:28.759Z,30.80
2018-06-16T13:31:00.432Z,31.40
2018-06-16T13:33:31.263Z,29.80
2018-06-16T13:36:02.074Z,30.80
2018-06-16T13:38:32.855Z,30.00
2018-06-16T13:41:03.127Z,29.40
2018-06-16T13:43:33.663Z,30.40
2018-06-16T13:46:04.343Z,30.40
2018-06-16T13:48:34.577Z,31.10
2018-06-16T13:51:04.800Z,31.80
2018-06-16T13:53:35.491Z,31.90
2018-06-16T13:56:05.799Z,30.40
2018-06-16T13:58:36.036Z,30.00
2018-06-16T14:01:06.712Z,30.50
2018-06-16T14:03:36.933Z,32.00
2018-06-16T14:06:07.234Z,31.90
2018-06-16T14:08:37.759Z,32.00
2018-06-16T14:11:08.033Z,30.60
2018-06-16T14:13:38.603Z,31.40
2018-06-16T14:16:09.207Z,30.10
2018-06-16T14:18:39.645Z,29.80
2018-06-16T14:21:09.895Z,30.40
2018-06-16T14:23:40.100Z,30.70
2018-06-16T14:26:10.355Z,29.50
2018-06-16T14:28:40.636Z,28.90
2018-06-16T14:31:10.987Z,29.80
2018-06-16T14:33:41.927Z,29.80
2018-06-16T14:36:12.195Z,29.40
2018-06-16T14:38:42.547Z,30.10
2018-06-16T14:41:12.965Z,29.30
2018-06-16T14:43:43.977Z,30.00
2018-06-16T14:46:14.227Z,30.80
2018-06-16T14:48:44.443Z,31.00
2018-06-16T14:51:15.020Z,31.60
2018-06-16T14:53:45.439Z,32.50
2018-06-16T14:56:15.641Z,31.70
2018-06-16T14:58:46.347Z,31.20
2018-06-16T15:01:16.563Z,31.70
2018-06-16T15:03:47.167Z,30.10
2018-06-16T15:06:17.950Z,29.50
2018-06-16T15:08:48.554Z,30.20
2018-06-16T15:11:18.802Z,30.40
2018-06-16T15:13:49.011Z,31.00
2018-06-16T15:16:19.248Z,31.50
2018-06-16T15:18:49.807Z,30.40
2018-06-16T15:21:20.011Z,29.70
2018-06-16T15:23:50.339Z,29.20
2018-06-16T15:26:20.858Z,29.30
2018-06-16T15:28:51.124Z,28.60
2018-06-16T15:31:21.506Z,28.60
2018-06-16T15:33:52.469Z,28.30
2018-06-16T15:41:22.328Z,28.30
2018-06-16T15:43:52.898Z,28.90
2018-06-16T15:46:23.506Z,28.70
2018-06-16T15:48:54.279Z,29.00
2018-06-16T15:51:24.953Z,28.20
2018-06-16T15:53:56.751Z,28.70
2018-06-16T15:56:27.595Z,28.50
2018-06-16T15:58:58.710Z,27.90
2018-06-16T16:01:29.332Z,27.00
2018-06-16T16:03:59.868Z,26.30
2018-06-16T16:06:30.484Z,26.60
2018-06-16T16:09:00.899Z,27.00
2018-06-16T16:11:31.508Z,27.40
2018-06-16T16:14:03.720Z,28.60
2018-06-16T16:16:34.025Z,29.50
2018-06-16T16:21:34.544Z,29.40
2018-06-16T16:24:05.067Z,30.60
2018-06-16T16:26:35.291Z,29.20
2018-06-16T16:29:06.029Z,29.50
2018-06-16T16:31:36.258Z,29.30
2018-06-16T16:34:06.824Z,29.60
2018-06-16T16:36:37.127Z,29.50
2018-06-16T16:39:09.375Z,29.70
2018-06-16T16:41:39.907Z,28.50
2018-06-16T16:44:10.499Z,28.00
2018-06-16T16:46:41.023Z,27.00
2018-06-16T16:49:11.271Z,27.10
2018-06-16T16:51:41.725Z,27.10
2018-06-16T16:54:12.143Z,26.90
2018-06-16T16:59:12.853Z,26.80
2018-06-16T17:01:43.369Z,27.00
2018-06-16T17:04:14.643Z,26.80
2018-06-16T17:06:45.732Z,26.80
2018-06-16T17:09:16.283Z,27.90
2018-06-16T17:11:47.423Z,28.80
2018-06-16T17:14:18.647Z,29.10
2018-06-16T17:16:48.916Z,29.10
2018-06-16T17:19:19.312Z,28.70
2018-06-16T17:21:49.887Z,27.80
2018-06-16T17:24:20.464Z,27.90
2018-06-16T17:26:50.795Z,27.90
2018-06-16T17:29:21.875Z,28.30
2018-06-16T17:31:52.418Z,28.40
2018-06-16T17:34:23.067Z,27.20
2018-06-16T17:36:53.732Z,26.50
2018-06-16T17:39:24.336Z,26.10
2018-06-16T17:41:54.619Z,26.00
2018-06-16T17:44:25.215Z,25.80
2018-06-16T17:46:55.443Z,25.70
2018-06-16T17:49:25.719Z,26.10
2018-06-16T17:51:56.251Z,26.70
2018-06-16T17:54:26.495Z,26.40
2018-06-16T17:56:56.708Z,25.60
2018-06-16T17:59:27.547Z,25.30
2018-06-16T18:01:57.759Z,24.80
2018-06-16T18:04:27.983Z,24.80
2018-06-16T18:06:58.652Z,25.00
2018-06-16T18:09:28.895Z,24.80
2018-06-16T18:12:01.509Z,24.80
2018-06-16T18:14:32.426Z,24.70
2018-06-16T18:17:02.741Z,24.50
2018-06-16T18:19:33.003Z,24.00
2018-06-16T18:22:03.354Z,23.80
2018-06-16T18:24:34.366Z,23.30
2018-06-16T18:27:04.807Z,23.20
2018-06-16T18:29:35.114Z,23.00
2018-06-16T18:32:05.392Z,23.10
2018-06-16T18:34:36.103Z,22.90
2018-06-16T18:37:06.356Z,22.90
2018-06-16T18:39:36.609Z,22.80
2018-06-16T18:42:06.945Z,22.90
2018-06-16T18:44:37.467Z,22.90
2018-06-16T18:47:08.039Z,22.90
2018-06-16T18:49:38.419Z,22.70
2018-06-16T18:52:08.779Z,22.60
2018-06-16T18:54:39.023Z,22.60
2018-06-16T18:57:09.235Z,22.20
2018-06-16T18:59:39.876Z,22.20
2018-06-16T19:02:10.119Z,22.10
2018-06-16T19:04:40.832Z,22.00
2018-06-16T19:07:11.354Z,22.00
2018-06-16T19:09:41.952Z,21.90
2018-06-16T19:12:12.199Z,21.80
2018-06-16T19:14:42.751Z,21.70
2018-06-16T19:17:13.021Z,21.70
2018-06-16T19:19:43.663Z,21.50
2018-06-16T19:22:13.888Z,21.50
2018-06-16T19:24:44.103Z,21.40
2018-06-16T19:27:14.331Z,21.30
2018-06-16T19:29:44.644Z,21.30
2018-06-16T19:32:14.868Z,21.30
2018-06-16T19:34:45.560Z,21.30
2018-06-16T19:37:15.855Z,21.30
2018-06-16T19:39:46.071Z,21.20
2018-06-16T19:42:16.617Z,21.20
2018-06-16T19:44:46.851Z,21.10
2018-06-16T19:47:17.099Z,21.10
2018-06-16T19:49:47.631Z,21.00
2018-06-16T19:52:17.924Z,20.90
2018-06-16T19:54:48.173Z,20.80
2018-06-16T19:57:18.699Z,20.70
2018-06-16T19:59:48.907Z,20.60
2018-06-16T20:02:19.175Z,20.40
2018-06-16T20:04:49.539Z,20.30
2018-06-16T20:07:19.911Z,20.20
2018-06-16T20:09:50.187Z,20.20
2018-06-16T20:12:20.416Z,20.10
2018-06-16T20:14:51.262Z,20.00
2018-06-16T20:17:21.570Z,19.90
2018-06-16T20:19:51.896Z,19.80
2018-06-16T20:22:22.135Z,19.80
2018-06-16T20:24:52.540Z,19.70
2018-06-16T20:27:23.088Z,19.60
2018-06-16T20:29:53.435Z,19.50
2018-06-16T20:32:23.742Z,19.40
2018-06-16T20:34:54.279Z,19.20
2018-06-16T20:37:24.559Z,19.10
2018-06-16T20:39:54.839Z,19.00
2018-06-16T20:42:25.503Z,18.80
2018-06-16T20:44:56.160Z,18.80
2018-06-16T20:47:26.406Z,18.70
2018-06-16T20:49:57.083Z,18.70
2018-06-16T20:52:27.319Z,18.70
2018-06-16T20:54:57.593Z,18.80
2018-06-16T20:57:28.122Z,18.80
2018-06-16T20:59:58.499Z,18.80
2018-06-16T21:02:28.760Z,18.80
2018-06-16T21:04:59.578Z,18.80
2018-06-16T21:07:29.888Z,18.90
2018-06-16T21:10:00.547Z,18.90
2018-06-16T21:12:31.127Z,18.90
2018-06-16T21:15:01.378Z,18.90
2018-06-16T21:17:31.654Z,19.00
2018-06-16T21:20:02.384Z,18.90
2018-06-16T21:22:32.708Z,18.90
2018-06-16T21:25:03.021Z,18.90
2018-06-16T21:27:33.605Z,18.90
2018-06-16T21:30:04.419Z,18.90
2018-06-16T21:32:34.792Z,18.90
2018-06-16T21:35:05.771Z,18.90
2018-06-16T21:37:36.011Z,18.90
2018-06-16T21:40:06.427Z,18.90
2018-06-16T21:42:37.403Z,18.90
2018-06-16T21:45:08.025Z,19.00
2018-06-16T21:47:38.295Z,19.00
2018-06-16T21:50:08.560Z,19.10
2018-06-16T21:52:38.832Z,19.10
2018-06-16T21:55:09.091Z,19.20
2018-06-16T21:57:39.386Z,19.20
2018-06-16T22:00:12.663Z,19.30
2018-06-16T22:02:43.727Z,19.30
2018-06-16T22:05:14.323Z,19.30
2018-06-16T22:07:44.567Z,19.30
2018-06-16T22:10:14.807Z,19.20
2018-06-16T22:12:45.040Z,19.10
2018-06-16T22:15:15.488Z,18.80
2018-06-16T22:17:46.112Z,18.50
2018-06-16T22:20:16.632Z,18.30
2018-06-16T22:22:46.951Z,18.10
2018-06-16T22:25:17.255Z,18.00
2018-06-16T22:27:47.978Z,17.90
2018-06-16T22:30:18.640Z,17.70
2018-06-16T22:32:48.951Z,17.60
2018-06-16T22:35:19.708Z,17.50
2018-06-16T22:37:49.955Z,17.40
2018-06-16T22:40:20.233Z,17.50
2018-06-16T22:42:50.963Z,17.50
2018-06-16T22:45:21.332Z,17.50
2018-06-16T22:47:51.681Z,17.60
2018-06-16T22:50:22.419Z,17.60
2018-06-16T22:52:52.907Z,17.50
2018-06-16T22:55:23.399Z,17.60
2018-06-16T22:57:53.691Z,17.50
2018-06-16T23:00:28.786Z,17.40
2018-06-16T23:02:59.768Z,17.40
2018-06-16T23:05:30.364Z,17.40
2018-06-16T23:08:00.700Z,17.50
2018-06-16T23:10:31.784Z,17.50
2018-06-16T23:13:02.124Z,17.50
2018-06-16T23:15:32.435Z,17.40
2018-06-16T23:18:03.140Z,17.20
2018-06-16T23:20:33.736Z,17.30
2018-06-16T23:23:04.099Z,17.20
2018-06-16T23:25:35.118Z,17.30
2018-06-16T23:28:05.743Z,17.20
2018-06-16T23:30:35.980Z,17.10
2018-06-16T23:33:06.716Z,17.10
2018-06-16T23:35:37.167Z,17.10
2018-06-16T23:38:07.447Z,17.10
2018-06-16T23:40:38.573Z,17.10
2018-06-16T23:45:38.955Z,17.20
2018-06-16T23:48:09.840Z,17.20
2018-06-16T23:50:40.247Z,17.20
2018-06-16T23:53:10.583Z,17.30
2018-06-16T23:55:40.891Z,17.30
2018-06-16T23:58:11.611Z,17.20
